createdAt,value
2024-01-10T00:01:22.210Z,-4.73
2024-01-10T00:03:52.118Z,-4.79
2024-01-10T00:06:20.567Z,-4.76
2024-01-10T00:08:48.522Z,-4.75
2024-01-10T00:11:16.624Z,-4.73
2024-01-10T00:13:44.712Z,-4.75
2024-01-10T00:16:14.283Z,-4.77
2024-01-10T00:18:42.377Z,-4.64
2024-01-10T00:21:12.242Z,-4.52
2024-01-10T00:23:40.162Z,-4.53
2024-01-10T00:26:08.170Z,-4.51
2024-01-10T00:28:36.163Z,-4.51
2024-01-10T00:31:04.216Z,-4.51
2024-01-10T00:33:32.928Z,-4.43
2024-01-10T00:36:01.173Z,-4.42
2024-01-10T00:38:30.443Z,-4.33
2024-01-10T00:40:58.414Z,-4.27
2024-01-10T00:43:26.447Z,-4.48
2024-01-10T00:45:54.323Z,-4.36
2024-01-10T00:48:22.334Z,-4.42
2024-01-10T00:50:50.422Z,-4.50
2024-01-10T00:53:18.403Z,-4.47
2024-01-10T00:55:47.734Z,-4.43
2024-01-10T00:58:18.081Z,-4.51
2024-01-10T01:00:46.104Z,-4.61
2024-01-10T01:03:14.021Z,-4.71
2024-01-10T01:05:42.548Z,-4.75
2024-01-10T01:08:10.560Z,-4.84
2024-01-10T01:10:38.776Z,-4.79
2024-01-10T01:13:08.256Z,-4.75
2024-01-10T01:15:36.221Z,-4.85
2024-01-10T01:18:07.071Z,-4.86
2024-01-10T01:20:35.182Z,-4.88
2024-01-10T01:23:03.226Z,-5.01
2024-01-10T01:25:31.303Z,-5.03
2024-01-10T01:27:59.176Z,-5.09
2024-01-10T01:30:28.554Z,-5.19
2024-01-10T01:32:56.670Z,-5.20
2024-01-10T01:35:24.786Z,-5.16
2024-01-10T01:37:52.966Z,-5.15
2024-01-10T01:40:21.164Z,-5.14
2024-01-10T01:42:49.221Z,-5.15
2024-01-10T01:45:17.278Z,-5.13
2024-01-10T01:47:47.412Z,-5.09
2024-01-10T01:50:15.713Z,-5.06
2024-01-10T01:52:44.010Z,-5.12
2024-01-10T01:55:12.708Z,-5.09
2024-01-10T01:57:40.704Z,-5.12
2024-01-10T02:00:10.939Z,-4.97
2024-01-10T02:02:39.520Z,-4.86
2024-01-10T02:05:09.338Z,-4.91
2024-01-10T02:07:37.449Z,-4.83
2024-01-10T02:10:06.029Z,-4.86
2024-01-10T02:12:33.971Z,-4.77
2024-01-10T02:15:01.997Z,-4.76
2024-01-10T02:17:32.358Z,-4.80
2024-01-10T02:20:11.932Z,-4.75
2024-01-10T02:22:40.081Z,-4.70
2024-01-10T02:25:10.872Z,-4.75
2024-01-10T02:27:39.594Z,-4.79
2024-01-10T02:30:09.658Z,-4.85
2024-01-10T02:32:37.794Z,-4.80
2024-01-10T02:35:06.600Z,-4.81
2024-01-10T02:37:34.533Z,-4.74
2024-01-10T02:40:02.536Z,-4.62
2024-01-10T02:42:32.320Z,-4.74
2024-01-10T02:45:00.412Z,-4.76
2024-01-10T02:47:31.155Z,-4.79
2024-01-10T02:49:59.245Z,-4.65
2024-01-10T02:52:29.284Z,-4.65
2024-01-10T02:54:57.273Z,-4.64
2024-01-10T02:57:25.328Z,-4.63
2024-01-10T02:59:55.016Z,-4.60
2024-01-10T03:02:24.706Z,-4.72
2024-01-10T03:04:55.842Z,-4.66
2024-01-10T03:07:25.973Z,-4.68
2024-01-10T03:09:54.215Z,-4.67
2024-01-10T03:12:22.130Z,-4.63
2024-01-10T03:14:50.113Z,-4.79
2024-01-10T03:17:21.876Z,-4.83
2024-01-10T03:19:50.029Z,-4.96
2024-01-10T03:22:17.917Z,-4.96
2024-01-10T03:24:45.991Z,-5.00
2024-01-10T03:27:13.954Z,-5.04
2024-01-10T03:29:41.823Z,-5.05
2024-01-10T03:32:09.811Z,-4.93
2024-01-10T03:34:39.565Z,-5.00
2024-01-10T03:37:07.793Z,-4.97
2024-01-10T03:39:35.836Z,-4.88
2024-01-10T03:42:06.125Z,-4.90
2024-01-10T03:44:34.031Z,-4.95
2024-01-10T03:47:02.121Z,-4.80
2024-01-10T03:49:32.619Z,-4.84
2024-01-10T03:52:01.980Z,-4.75
2024-01-10T03:54:29.931Z,-4.57
2024-01-10T03:56:57.840Z,-4.50
2024-01-10T03:59:25.870Z,-4.55
2024-01-10T04:01:53.944Z,-4.51
2024-01-10T04:04:21.883Z,-4.41
2024-01-10T04:06:49.781Z,-4.58
2024-01-10T04:09:19.253Z,-4.38
2024-01-10T04:11:47.760Z,-4.34
2024-01-10T04:14:16.762Z,-4.23
2024-01-10T04:16:44.808Z,-4.23
2024-01-10T04:19:12.838Z,-4.11
2024-01-10T04:21:41.980Z,-4.34
2024-01-10T04:24:09.940Z,-4.18
2024-01-10T04:26:39.239Z,-4.25
2024-01-10T04:29:07.373Z,-4.36
2024-01-10T04:31:36.833Z,-4.20
2024-01-10T04:34:05.120Z,-4.09
2024-01-10T04:36:33.004Z,-4.13
2024-01-10T04:39:00.938Z,-4.12
2024-01-10T04:41:28.975Z,-4.12
2024-01-10T04:43:58.376Z,-4.17
2024-01-10T04:46:26.351Z,-4.10
2024-01-10T04:48:54.415Z,-4.04
2024-01-10T04:51:22.533Z,-4.00
2024-01-10T04:53:50.587Z,-4.00
2024-01-10T04:56:18.628Z,-4.20
2024-01-10T04:58:47.703Z,-4.27
2024-01-10T05:01:17.237Z,-4.42
2024-01-10T05:03:45.270Z,-4.21
2024-01-10T05:06:13.431Z,-4.33
2024-01-10T05:08:41.360Z,-4.41
2024-01-10T05:11:09.362Z,-4.36
2024-01-10T05:13:37.465Z,-4.38
2024-01-10T05:16:08.046Z,-4.19
2024-01-10T05:18:37.374Z,-4.22
2024-01-10T05:21:05.960Z,-4.30
2024-01-10T05:23:33.880Z,-4.39
2024-01-10T05:26:01.816Z,-4.27
2024-01-10T05:28:29.692Z,-4.15
2024-01-10T05:30:57.569Z,-4.21
2024-01-10T05:33:25.834Z,-4.39
2024-01-10T05:35:55.959Z,-4.32
2024-01-10T05:38:23.940Z,-4.36
2024-01-10T05:40:53.113Z,-4.31
2024-01-10T05:43:21.277Z,-4.29
2024-01-10T05:45:49.492Z,-4.37
2024-01-10T05:48:18.598Z,-4.19
2024-01-10T05:50:46.641Z,-4.30
2024-01-10T05:53:18.474Z,-4.48
2024-01-10T05:55:46.726Z,-4.23
2024-01-10T05:58:14.702Z,-4.31
2024-01-10T06:00:42.578Z,-4.26
2024-01-10T06:03:10.566Z,-4.26
2024-01-10T06:05:38.622Z,-4.21
2024-01-10T06:08:06.967Z,-4.33
2024-01-10T06:10:38.160Z,-4.25
2024-01-10T06:13:06.583Z,-4.28
2024-01-10T06:15:35.301Z,-4.54
2024-01-10T06:18:04.846Z,-4.62
2024-01-10T06:20:34.047Z,-4.48
2024-01-10T06:23:02.026Z,-4.29
2024-01-10T06:25:29.968Z,-4.35
2024-01-10T06:27:59.379Z,-4.35
2024-01-10T06:30:27.986Z,-4.54
2024-01-10T06:32:56.388Z,-4.57
2024-01-10T06:35:24.546Z,-4.63
2024-01-10T06:37:52.887Z,-4.58
2024-01-10T06:40:22.919Z,-4.86
2024-01-10T06:42:50.951Z,-5.18
2024-01-10T06:45:21.277Z,-5.13
2024-01-10T06:47:49.472Z,-5.05
2024-01-10T06:50:18.036Z,-5.03
2024-01-10T06:52:45.926Z,-5.07
2024-01-10T06:55:14.012Z,-5.17
2024-01-10T06:57:42.021Z,-5.00
2024-01-10T07:00:12.242Z,-4.92
2024-01-10T07:02:42.293Z,-4.94
2024-01-10T07:05:11.211Z,-4.84
2024-01-10T07:07:39.220Z,-4.87
2024-01-10T07:10:07.978Z,-5.01
2024-01-10T07:12:36.385Z,-5.08
2024-01-10T07:15:05.254Z,-5.01
2024-01-10T07:17:34.524Z,-5.16
2024-01-10T07:20:05.244Z,-5.03
2024-01-10T07:22:33.436Z,-5.04
2024-01-10T07:25:01.612Z,-4.84
2024-01-10T07:27:29.601Z,-4.71
2024-01-10T07:29:58.781Z,-4.65
2024-01-10T07:32:26.896Z,-4.62
2024-01-10T07:34:55.008Z,-4.58
2024-01-10T07:37:24.405Z,-4.67
2024-01-10T07:39:52.570Z,-4.86
2024-01-10T07:42:20.571Z,-4.88
2024-01-10T07:44:52.494Z,-4.82
2024-01-10T07:47:22.245Z,-4.79
2024-01-10T07:49:52.880Z,-4.85
2024-01-10T07:52:23.806Z,-4.83
2024-01-10T07:55:24.591Z,-4.78
2024-01-10T07:58:04.101Z,-4.63
2024-01-10T08:00:32.220Z,-4.72
2024-01-10T08:03:00.750Z,-4.86
2024-01-10T08:05:29.500Z,-4.89
2024-01-10T08:07:59.561Z,-4.83
2024-01-10T08:10:29.546Z,-4.78
2024-01-10T08:12:58.407Z,-4.69
2024-01-10T08:15:26.581Z,-4.65
2024-01-10T08:17:55.031Z,-4.50
2024-01-10T08:20:23.939Z,-4.30
2024-01-10T08:22:52.266Z,-4.16
2024-01-10T08:25:20.426Z,-4.17
2024-01-10T08:27:50.122Z,-4.06
2024-01-10T08:30:18.426Z,-3.89
2024-01-10T08:32:46.705Z,-3.81
2024-01-10T08:35:15.037Z,-3.68
2024-01-10T08:37:45.571Z,-3.54
2024-01-10T08:40:16.303Z,-3.31
2024-01-10T08:42:44.692Z,-3.05
2024-01-10T08:45:16.072Z,-2.81
2024-01-10T08:47:44.882Z,-2.60
2024-01-10T08:50:13.186Z,-2.27
2024-01-10T08:52:41.403Z,-1.98
2024-01-10T08:55:13.560Z,-1.60
2024-01-10T08:57:42.609Z,-1.46
2024-01-10T09:00:13.478Z,-1.50
2024-01-10T09:02:43.395Z,-1.40
2024-01-10T09:05:12.323Z,-1.14
2024-01-10T09:07:41.338Z,-1.07
2024-01-10T09:10:10.179Z,-0.99
2024-01-10T09:12:38.521Z,-0.99
2024-01-10T09:15:09.480Z,-0.81
2024-01-10T09:17:37.696Z,-0.62
2024-01-10T09:20:09.673Z,-0.63
2024-01-10T09:22:39.095Z,-0.73
2024-01-10T09:25:08.225Z,-0.79
2024-01-10T09:27:37.337Z,-0.76
2024-01-10T09:30:09.779Z,-0.77
2024-01-10T09:32:39.102Z,-0.60
2024-01-10T09:35:10.407Z,-0.32
2024-01-10T09:37:38.701Z,-0.18
2024-01-10T09:40:08.545Z,-0.18
2024-01-10T09:42:38.802Z,-0.29
2024-01-10T09:45:09.309Z,-0.39
2024-01-10T09:47:40.052Z,-0.24
2024-01-10T09:50:11.434Z,-0.07
2024-01-10T09:52:44.448Z,-0.04
2024-01-10T09:55:15.339Z,0.00
2024-01-10T09:57:43.441Z,0.08
2024-01-10T10:00:13.102Z,0.05
2024-01-10T10:02:42.158Z,0.10
2024-01-10T10:05:16.685Z,0.08
2024-01-10T10:07:49.519Z,-0.56
2024-01-10T10:10:18.637Z,-0.39
2024-01-10T10:12:48.521Z,-0.90
2024-01-10T10:15:19.947Z,-0.43
2024-01-10T10:17:49.857Z,-0.43
2024-01-10T10:20:23.860Z,-0.15
2024-01-10T10:23:11.805Z,-0.05
2024-01-10T10:25:45.827Z,0.17
2024-01-10T10:28:24.864Z,0.13
2024-01-10T10:30:58.488Z,-0.10
2024-01-10T10:33:26.922Z,0.34
2024-01-10T10:35:56.742Z,-0.21
2024-01-10T10:38:25.108Z,0.06
2024-01-10T10:40:54.220Z,-0.07
2024-01-10T10:43:24.159Z,0.48
2024-01-10T10:45:52.681Z,0.60
2024-01-10T10:48:23.075Z,0.72
2024-01-10T10:51:01.745Z,0.68
2024-01-10T10:53:31.365Z,0.92
2024-01-10T10:56:01.581Z,0.90
2024-01-10T10:58:30.281Z,1.16
2024-01-10T11:01:00.369Z,1.13
2024-01-10T11:03:30.816Z,1.34
2024-01-10T11:06:03.791Z,1.53
2024-01-10T11:08:36.223Z,1.61
2024-01-10T11:11:08.505Z,1.80
2024-01-10T11:13:53.965Z,1.40
2024-01-10T11:16:43.940Z,1.64
2024-01-10T11:19:44.592Z,1.87
2024-01-10T11:22:24.450Z,1.88
2024-01-10T11:24:52.962Z,2.12
2024-01-10T11:27:21.274Z,2.10
2024-01-10T11:29:49.490Z,2.05
2024-01-10T11:32:18.658Z,1.92
2024-01-10T11:34:57.006Z,2.05
2024-01-10T11:37:30.905Z,1.61
2024-01-10T11:39:59.138Z,2.13
2024-01-10T11:42:43.466Z,2.29
2024-01-10T11:45:11.559Z,2.41
2024-01-10T11:47:42.352Z,1.79
2024-01-10T11:50:11.007Z,2.35
2024-01-10T11:52:40.500Z,2.46
2024-01-10T11:55:09.832Z,2.74
2024-01-10T11:57:38.447Z,2.84
2024-01-10T12:00:09.223Z,3.15
2024-01-10T12:02:38.817Z,2.93
2024-01-10T12:05:08.419Z,2.95
2024-01-10T12:07:36.683Z,1.94
2024-01-10T12:10:07.150Z,1.57
2024-01-10T12:12:35.599Z,2.39
2024-01-10T12:15:04.109Z,2.94
2024-01-10T12:17:32.318Z,2.76
2024-01-10T12:20:00.969Z,3.03
2024-01-10T12:22:30.057Z,2.85
2024-01-10T12:25:09.192Z,2.81
2024-01-10T12:27:41.109Z,3.18
2024-01-10T12:30:11.364Z,3.34
2024-01-10T12:32:39.809Z,3.51
2024-01-10T12:35:09.049Z,3.46
2024-01-10T12:37:37.523Z,3.57
2024-01-10T12:40:11.190Z,2.88
2024-01-10T12:43:24.162Z,2.76
2024-01-10T12:46:05.761Z,2.95
2024-01-10T12:48:34.646Z,2.93
2024-01-10T12:51:05.330Z,3.34
2024-01-10T12:53:33.962Z,3.37
2024-01-10T12:56:04.388Z,1.89
2024-01-10T12:58:33.972Z,2.76
2024-01-10T13:01:02.267Z,3.29
2024-01-10T13:03:30.454Z,3.24
2024-01-10T13:05:59.701Z,3.29
2024-01-10T13:08:28.106Z,3.35
2024-01-10T13:10:57.132Z,3.26
2024-01-10T13:13:26.699Z,3.16
2024-01-10T13:15:57.080Z,3.31
2024-01-10T13:18:25.892Z,3.23
2024-01-10T13:20:54.540Z,2.80
2024-01-10T13:23:24.375Z,2.79
2024-01-10T13:25:52.832Z,2.97
2024-01-10T13:28:21.071Z,3.18
2024-01-10T13:30:52.128Z,3.19
2024-01-10T13:33:21.774Z,3.21
2024-01-10T13:35:50.809Z,3.20
2024-01-10T13:38:18.989Z,2.80
2024-01-10T13:40:48.472Z,1.51
2024-01-10T13:43:16.885Z,1.38
2024-01-10T13:45:45.088Z,1.84
2024-01-10T13:48:15.408Z,2.10
2024-01-10T13:50:43.784Z,1.28
2024-01-10T13:53:12.213Z,1.02
2024-01-10T13:55:41.341Z,1.05
2024-01-10T13:58:09.753Z,1.10
2024-01-10T14:00:39.484Z,1.21
2024-01-10T14:03:10.871Z,0.84
2024-01-10T14:05:41.056Z,1.16
2024-01-10T14:08:10.196Z,1.08
2024-01-10T14:10:40.132Z,1.43
2024-01-10T14:13:08.509Z,1.75
2024-01-10T14:15:36.948Z,1.86
2024-01-10T14:18:06.031Z,1.62
2024-01-10T14:20:34.512Z,1.56
2024-01-10T14:23:04.391Z,1.20
2024-01-10T14:25:32.843Z,0.93
2024-01-10T14:28:01.614Z,0.95
2024-01-10T14:30:29.911Z,0.94
2024-01-10T14:33:00.669Z,0.79
2024-01-10T14:35:29.270Z,0.85
2024-01-10T14:37:57.610Z,0.69
2024-01-10T14:40:27.120Z,0.39
2024-01-10T14:42:55.240Z,0.57
2024-01-10T14:45:23.791Z,0.56
2024-01-10T14:47:52.659Z,0.29
2024-01-10T14:50:20.798Z,0.30
2024-01-10T14:52:49.231Z,0.30
2024-01-10T14:55:17.645Z,0.42
2024-01-10T14:57:47.669Z,0.43
2024-01-10T15:00:22.282Z,0.56
2024-01-10T15:02:54.325Z,0.53
2024-01-10T15:05:27.440Z,0.54
2024-01-10T15:07:56.067Z,0.43
2024-01-10T15:10:24.206Z,0.52
2024-01-10T15:12:53.685Z,0.22
2024-01-10T15:15:22.105Z,0.16
2024-01-10T15:17:50.729Z,0.10
2024-01-10T15:20:19.022Z,0.01
2024-01-10T15:22:47.610Z,-0.08
2024-01-10T15:25:15.953Z,-0.12
2024-01-10T15:27:44.088Z,0.03
2024-01-10T15:30:16.943Z,0.13
2024-01-10T15:32:45.757Z,-0.12
2024-01-10T15:35:14.700Z,-0.10
2024-01-10T15:37:43.864Z,-0.10
2024-01-10T15:40:13.021Z,-0.06
2024-01-10T15:42:41.217Z,0.02
2024-01-10T15:45:10.640Z,-0.04
2024-01-10T15:47:42.532Z,-0.18
2024-01-10T15:50:12.346Z,-0.23
2024-01-10T15:52:40.980Z,-0.23
2024-01-10T15:55:50.846Z,-0.39
2024-01-10T15:58:54.714Z,-0.56
2024-01-10T16:01:32.835Z,-0.57
2024-01-10T16:04:02.950Z,-0.49
2024-01-10T16:06:33.605Z,-0.45
2024-01-10T16:09:05.065Z,-0.37
2024-01-10T16:11:44.454Z,-0.31
2024-01-10T16:14:12.892Z,-0.31
2024-01-10T16:16:41.030Z,-0.29
2024-01-10T16:19:10.920Z,-0.32
2024-01-10T16:21:39.196Z,-0.38
2024-01-10T16:24:09.208Z,-0.42
2024-01-10T16:26:37.970Z,-0.53
2024-01-10T16:29:06.494Z,-0.55
2024-01-10T16:31:38.115Z,-0.59
2024-01-10T16:34:06.285Z,-0.65
2024-01-10T16:36:35.742Z,-0.72
2024-01-10T16:39:03.992Z,-0.74
2024-01-10T16:41:33.741Z,-0.77
2024-01-10T16:44:01.924Z,-0.84
2024-01-10T16:46:30.121Z,-0.80
2024-01-10T16:48:58.251Z,-0.98
2024-01-10T16:51:26.465Z,-1.23
2024-01-10T16:53:55.906Z,-1.15
2024-01-10T16:56:24.052Z,-1.13
2024-01-10T16:58:53.248Z,-1.05
2024-01-10T17:01:21.731Z,-1.11
2024-01-10T17:03:50.573Z,-1.17
2024-01-10T17:06:19.311Z,-1.17
2024-01-10T17:08:47.842Z,-1.14
2024-01-10T17:11:18.995Z,-1.21
2024-01-10T17:13:48.200Z,-1.24
2024-01-10T17:16:16.875Z,-1.29
2024-01-10T17:18:45.469Z,-1.34
2024-01-10T17:21:14.003Z,-1.37
2024-01-10T17:23:43.077Z,-1.39
2024-01-10T17:26:11.471Z,-1.44
2024-01-10T17:28:40.937Z,-1.44
2024-01-10T17:31:09.083Z,-1.38
2024-01-10T17:33:37.446Z,-1.40
2024-01-10T17:36:08.056Z,-1.53
2024-01-10T17:38:36.624Z,-1.68
2024-01-10T17:41:04.969Z,-1.65
2024-01-10T17:43:33.029Z,-1.66
2024-01-10T17:46:02.563Z,-1.62
2024-01-10T17:48:30.860Z,-1.60
2024-01-10T17:50:59.127Z,-1.62
2024-01-10T17:53:27.254Z,-1.63
2024-01-10T17:55:57.812Z,-1.64
2024-01-10T17:58:25.902Z,-1.65
2024-01-10T18:00:56.749Z,-1.66
2024-01-10T18:03:26.320Z,-1.63
2024-01-10T18:05:57.114Z,-1.68
2024-01-10T18:08:25.271Z,-1.68
2024-01-10T18:10:55.454Z,-1.75
2024-01-10T18:13:23.720Z,-1.79
2024-01-10T18:15:52.142Z,-1.92
2024-01-10T18:18:21.538Z,-2.06
2024-01-10T18:20:52.827Z,-2.21
2024-01-10T18:23:21.164Z,-2.37
2024-01-10T18:25:51.369Z,-2.44
2024-01-10T18:28:21.937Z,-2.36
2024-01-10T18:30:50.071Z,-2.25
2024-01-10T18:33:18.312Z,-2.25
2024-01-10T18:35:46.836Z,-2.34
2024-01-10T18:38:17.695Z,-2.56
2024-01-10T18:40:46.760Z,-2.56
2024-01-10T18:43:15.581Z,-2.45
2024-01-10T18:45:44.236Z,-2.53
2024-01-10T18:48:13.079Z,-2.50
2024-01-10T18:50:41.979Z,-2.47
2024-01-10T18:53:10.759Z,-2.38
2024-01-10T18:55:41.016Z,-2.45
2024-01-10T18:58:11.722Z,-2.49
2024-01-10T19:00:41.279Z,-2.44
2024-01-10T19:03:09.502Z,-2.37
2024-01-10T19:05:37.982Z,-2.34
2024-01-10T19:08:06.677Z,-2.31
2024-01-10T19:10:35.260Z,-2.45
2024-01-10T19:13:05.567Z,-2.46
2024-01-10T19:15:34.615Z,-2.38
2024-01-10T19:18:03.550Z,-2.45
2024-01-10T19:20:32.275Z,-2.54
2024-01-10T19:23:03.465Z,-2.51
2024-01-10T19:25:35.389Z,-2.54
2024-01-10T19:28:05.773Z,-2.63
2024-01-10T19:30:36.239Z,-2.64
2024-01-10T19:33:05.902Z,-2.60
2024-01-10T19:35:36.240Z,-2.56
2024-01-10T19:38:05.325Z,-2.58
2024-01-10T19:40:35.754Z,-2.62
2024-01-10T19:43:05.970Z,-2.80
2024-01-10T19:45:34.871Z,-3.08
2024-01-10T19:48:03.049Z,-3.14
2024-01-10T19:50:31.590Z,-3.32
2024-01-10T19:52:59.732Z,-3.29
2024-01-10T19:55:27.906Z,-3.25
2024-01-10T19:57:56.347Z,-3.26
2024-01-10T20:00:27.590Z,-3.21
2024-01-10T20:02:55.822Z,-3.20
2024-01-10T20:05:25.143Z,-3.18
2024-01-10T20:07:54.469Z,-3.48
2024-01-10T20:10:25.537Z,-3.32
2024-01-10T20:12:54.447Z,-3.32
2024-01-10T20:15:23.292Z,-3.37
2024-01-10T20:17:53.865Z,-3.35
2024-01-10T20:20:22.518Z,-3.40
2024-01-10T20:22:50.716Z,-3.49
2024-01-10T20:25:18.719Z,-3.38
2024-01-10T20:27:46.668Z,-3.50
2024-01-10T20:30:15.524Z,-3.44
2024-01-10T20:32:44.294Z,-3.41
2024-01-10T20:35:13.755Z,-3.48
2024-01-10T20:37:42.342Z,-3.62
2024-01-10T20:40:14.023Z,-3.68
2024-01-10T20:42:44.080Z,-3.62
2024-01-10T20:45:17.484Z,-3.53
2024-01-10T20:47:46.006Z,-3.53
2024-01-10T20:50:15.490Z,-3.48
2024-01-10T20:52:44.237Z,-3.47
2024-01-10T20:55:12.245Z,-3.56
2024-01-10T20:57:40.564Z,-3.57
2024-01-10T21:00:11.719Z,-3.58
2024-01-10T21:02:39.956Z,-3.63
2024-01-10T21:05:09.480Z,-3.70
2024-01-10T21:07:39.095Z,-3.81
2024-01-10T21:10:07.611Z,-3.72
2024-01-10T21:12:35.550Z,-3.88
2024-01-10T21:15:06.961Z,-4.20
2024-01-10T21:17:35.049Z,-4.10
2024-01-10T21:20:03.592Z,-4.06
2024-01-10T21:22:32.217Z,-3.97
2024-01-10T21:25:01.471Z,-4.05
2024-01-10T21:27:29.374Z,-3.97
2024-01-10T21:29:57.321Z,-3.94
2024-01-10T21:32:25.270Z,-4.06
2024-01-10T21:34:53.411Z,-3.98
2024-01-10T21:37:21.854Z,-4.04
2024-01-10T21:39:49.845Z,-4.04
2024-01-10T21:42:19.424Z,-4.16
2024-01-10T21:44:47.340Z,-4.37
2024-01-10T21:47:16.178Z,-4.36
2024-01-10T21:49:44.945Z,-4.49
2024-01-10T21:52:13.385Z,-4.45
2024-01-10T21:54:41.632Z,-4.52
2024-01-10T21:57:09.772Z,-4.61
2024-01-10T21:59:41.674Z,-4.51
2024-01-10T22:02:09.762Z,-4.43
2024-01-10T22:04:37.836Z,-4.34
2024-01-10T22:07:05.843Z,-4.32
2024-01-10T22:09:33.992Z,-4.31
2024-01-10T22:12:01.965Z,-4.27
2024-01-10T22:14:29.927Z,-4.26
2024-01-10T22:16:59.306Z,-4.26
2024-01-10T22:19:27.475Z,-4.25
2024-01-10T22:21:55.418Z,-4.34
2024-01-10T22:24:23.709Z,-4.44
2024-01-10T22:26:53.071Z,-4.48
2024-01-10T22:29:22.269Z,-4.44
2024-01-10T22:31:52.809Z,-4.40
2024-01-10T22:34:22.268Z,-4.43
2024-01-10T22:36:50.310Z,-4.40
2024-01-10T22:39:18.274Z,-4.35
2024-01-10T22:41:46.186Z,-4.38
2024-01-10T22:44:17.730Z,-4.47
2024-01-10T22:46:46.411Z,-4.52
2024-01-10T22:49:14.980Z,-4.53
2024-01-10T22:51:44.357Z,-4.48
2024-01-10T22:54:14.690Z,-4.48
2024-01-10T22:56:43.710Z,-4.44
2024-01-10T22:59:12.265Z,-4.42
2024-01-10T23:01:40.779Z,-4.42
2024-01-10T23:04:08.727Z,-4.38
2024-01-10T23:06:37.012Z,-4.40
2024-01-10T23:09:06.898Z,-4.38
2024-01-10T23:11:35.786Z,-4.40
2024-01-10T23:14:03.910Z,-4.39
2024-01-10T23:16:31.964Z,-4.40
2024-01-10T23:18:59.982Z,-4.37
2024-01-10T23:21:28.067Z,-4.39
2024-01-10T23:23:58.455Z,-4.39
2024-01-10T23:26:27.806Z,-4.37
2024-01-10T23:28:55.801Z,-4.39
2024-01-10T23:31:23.969Z,-4.43
2024-01-10T23:33:52.128Z,-4.40
2024-01-10T23:36:20.145Z,-4.36
2024-01-10T23:38:48.218Z,-4.39
2024-01-10T23:41:16.292Z,-4.41
2024-01-10T23:43:45.700Z,-4.44
2024-01-10T23:46:13.828Z,-4.55
2024-01-10T23:48:42.019Z,-4.63
2024-01-10T23:51:10.048Z,-4.66
2024-01-10T23:53:38.260Z,-4.68
2024-01-10T23:56:07.993Z,-4.80
2024-01-10T23:58:36.073Z,-4.85
